sensor_id;sensor_type;location;lat;lon;timestamp;temperature;humidity
60723;DHT22;46574;52.818;6.516;2024-02-26T00:01:52;3.80;99.90
60723;DHT22;46574;52.818;6.516;2024-02-26T00:04:18;3.80;99.90
60723;DHT22;46574;52.818;6.516;2024-02-26T00:06:43;3.80;99.90
60723;DHT22;46574;52.818;6.516;2024-02-26T00:09:09;3.80;99.90
60723;DHT22;46574;52.818;6.516;2024-02-26T00:11:38;3.80;99.90
60723;DHT22;46574;52.818;6.516;2024-02-26T00:14:04;3.80;99.90
60723;DHT22;46574;52.818;6.516;2024-02-26T00:16:30;3.80;99.90
60723;DHT22;46574;52.818;6.516;2024-02-26T00:18:56;3.80;99.90
60723;DHT22;46574;52.818;6.516;2024-02-26T00:21:21;3.80;99.90
60723;DHT22;46574;52.818;6.516;2024-02-26T00:23:48;3.80;99.90
60723;DHT22;46574;52.818;6.516;2024-02-26T00:26:14;3.80;99.90
60723;DHT22;46574;52.818;6.516;2024-02-26T00:28:40;3.80;99.90
60723;DHT22;46574;52.818;6.516;2024-02-26T00:31:06;3.80;99.90
60723;DHT22;46574;52.818;6.516;2024-02-26T00:33:32;3.70;99.90
60723;DHT22;46574;52.818;6.516;2024-02-26T00:35:57;3.70;99.90
60723;DHT22;46574;52.818;6.516;2024-02-26T00:38:23;3.70;99.90
60723;DHT22;46574;52.818;6.516;2024-02-26T00:40:48;3.70;99.90
60723;DHT22;46574;52.818;6.516;2024-02-26T00:43:14;3.70;99.90
60723;DHT22;46574;52.818;6.516;2024-02-26T00:45:40;3.70;99.90
60723;DHT22;46574;52.818;6.516;2024-02-26T00:48:05;3.60;99.90
60723;DHT22;46574;52.818;6.516;2024-02-26T00:50:33;3.60;99.90
60723;DHT22;46574;52.818;6.516;2024-02-26T00:52:59;3.60;99.90
60723;DHT22;46574;52.818;6.516;2024-02-26T00:55:24;3.60;99.90
60723;DHT22;46574;52.818;6.516;2024-02-26T00:57:50;3.60;99.90
60723;DHT22;46574;52.818;6.516;2024-02-26T01:00:16;3.60;99.90
60723;DHT22;46574;52.818;6.516;2024-02-26T01:02:42;3.60;99.90
60723;DHT22;46574;52.818;6.516;2024-02-26T01:05:08;3.50;99.90
60723;DHT22;46574;52.818;6.516;2024-02-26T01:07:37;3.60;99.90
60723;DHT22;46574;52.818;6.516;2024-02-26T01:10:03;3.60;99.90
60723;DHT22;46574;52.818;6.516;2024-02-26T01:12:29;3.60;99.90
60723;DHT22;46574;52.818;6.516;2024-02-26T01:14:55;3.60;99.90
60723;DHT22;46574;52.818;6.516;2024-02-26T01:17:20;3.60;99.90
60723;DHT22;46574;52.818;6.516;2024-02-26T01:19:46;3.60;99.90
60723;DHT22;46574;52.818;6.516;2024-02-26T01:22:12;3.60;99.90
60723;DHT22;46574;52.818;6.516;2024-02-26T01:24:37;3.60;99.90
60723;DHT22;46574;52.818;6.516;2024-02-26T01:27:03;3.60;99.90
60723;DHT22;46574;52.818;6.516;2024-02-26T01:29:29;3.60;99.90
60723;DHT22;46574;52.818;6.516;2024-02-26T01:31:55;3.60;99.90
60723;DHT22;46574;52.818;6.516;2024-02-26T01:34:20;3.60;99.90
60723;DHT22;46574;52.818;6.516;2024-02-26T01:36:46;3.60;99.90
60723;DHT22;46574;52.818;6.516;2024-02-26T01:39:11;3.70;99.90
60723;DHT22;46574;52.818;6.516;2024-02-26T01:41:38;3.70;99.90
60723;DHT22;46574;52.818;6.516;2024-02-26T01:44:04;3.80;99.90
60723;DHT22;46574;52.818;6.516;2024-02-26T01:46:35;3.80;99.90
60723;DHT22;46574;52.818;6.516;2024-02-26T01:49:02;3.90;99.90
60723;DHT22;46574;52.818;6.516;2024-02-26T01:51:29;3.90;99.90
60723;DHT22;46574;52.818;6.516;2024-02-26T01:53:56;3.90;99.90
60723;DHT22;46574;52.818;6.516;2024-02-26T01:56:23;3.80;99.90
60723;DHT22;46574;52.818;6.516;2024-02-26T01:58:53;3.80;99.90
60723;DHT22;46574;52.818;6.516;2024-02-26T02:01:21;3.80;99.90
60723;DHT22;46574;52.818;6.516;2024-02-26T02:03:48;3.80;99.90
60723;DHT22;46574;52.818;6.516;2024-02-26T02:06:13;3.80;99.90
60723;DHT22;46574;52.818;6.516;2024-02-26T02:08:40;3.90;99.90
60723;DHT22;46574;52.818;6.516;2024-02-26T02:11:06;3.90;99.90
60723;DHT22;46574;52.818;6.516;2024-02-26T02:13:32;3.90;99.90
60723;DHT22;46574;52.818;6.516;2024-02-26T02:15:57;3.90;99.90
60723;DHT22;46574;52.818;6.516;2024-02-26T02:18:23;3.90;99.90
60723;DHT22;46574;52.818;6.516;2024-02-26T02:20:49;3.90;99.90
60723;DHT22;46574;52.818;6.516;2024-02-26T02:23:14;3.90;99.90
60723;DHT22;46574;52.818;6.516;2024-02-26T02:25:40;3.80;99.90
60723;DHT22;46574;52.818;6.516;2024-02-26T02:28:06;3.80;99.90
60723;DHT22;46574;52.818;6.516;2024-02-26T02:30:32;3.90;99.90
60723;DHT22;46574;52.818;6.516;2024-02-26T02:33:00;3.90;99.90
60723;DHT22;46574;52.818;6.516;2024-02-26T02:35:26;3.90;99.90
60723;DHT22;46574;52.818;6.516;2024-02-26T02:37:52;3.90;99.90
60723;DHT22;46574;52.818;6.516;2024-02-26T02:40:18;3.90;99.90
60723;DHT22;46574;52.818;6.516;2024-02-26T02:42:44;3.90;99.90
60723;DHT22;46574;52.818;6.516;2024-02-26T02:45:10;3.90;99.90
60723;DHT22;46574;52.818;6.516;2024-02-26T02:47:38;3.90;99.90
60723;DHT22;46574;52.818;6.516;2024-02-26T02:50:04;3.90;99.90
60723;DHT22;46574;52.818;6.516;2024-02-26T02:52:30;3.80;99.90
60723;DHT22;46574;52.818;6.516;2024-02-26T02:54:56;3.80;99.90
60723;DHT22;46574;52.818;6.516;2024-02-26T02:57:22;3.80;99.90
60723;DHT22;46574;52.818;6.516;2024-02-26T02:59:47;3.80;99.90
60723;DHT22;46574;52.818;6.516;2024-02-26T03:02:13;3.80;99.90
60723;DHT22;46574;52.818;6.516;2024-02-26T03:04:39;3.90;99.90
60723;DHT22;46574;52.818;6.516;2024-02-26T03:07:04;3.90;99.90
60723;DHT22;46574;52.818;6.516;2024-02-26T03:09:30;3.90;99.90
60723;DHT22;46574;52.818;6.516;2024-02-26T03:11:56;3.90;99.90
60723;DHT22;46574;52.818;6.516;2024-02-26T03:14:21;3.90;99.90
60723;DHT22;46574;52.818;6.516;2024-02-26T03:16:47;3.90;99.90
60723;DHT22;46574;52.818;6.516;2024-02-26T03:19:16;3.90;99.90
60723;DHT22;46574;52.818;6.516;2024-02-26T03:21:42;3.80;99.90
60723;DHT22;46574;52.818;6.516;2024-02-26T03:24:07;3.90;99.90
60723;DHT22;46574;52.818;6.516;2024-02-26T03:26:36;3.90;99.90
60723;DHT22;46574;52.818;6.516;2024-02-26T03:29:02;3.90;99.90
60723;DHT22;46574;52.818;6.516;2024-02-26T03:31:28;3.90;99.90
60723;DHT22;46574;52.818;6.516;2024-02-26T03:33:54;3.90;99.90
60723;DHT22;46574;52.818;6.516;2024-02-26T03:36:20;4.00;99.90
60723;DHT22;46574;52.818;6.516;2024-02-26T03:38:47;4.00;99.90
60723;DHT22;46574;52.818;6.516;2024-02-26T03:41:13;4.00;99.90
60723;DHT22;46574;52.818;6.516;2024-02-26T03:43:38;4.00;99.90
60723;DHT22;46574;52.818;6.516;2024-02-26T03:46:07;4.00;99.90
60723;DHT22;46574;52.818;6.516;2024-02-26T03:48:33;4.10;99.90
60723;DHT22;46574;52.818;6.516;2024-02-26T03:50:58;4.10;99.90
60723;DHT22;46574;52.818;6.516;2024-02-26T03:53:24;4.10;99.90
60723;DHT22;46574;52.818;6.516;2024-02-26T03:55:50;4.20;99.90
60723;DHT22;46574;52.818;6.516;2024-02-26T03:58:17;4.20;99.90
60723;DHT22;46574;52.818;6.516;2024-02-26T04:00:43;4.20;99.90
60723;DHT22;46574;52.818;6.516;2024-02-26T04:03:09;4.30;99.90
60723;DHT22;46574;52.818;6.516;2024-02-26T04:05:35;4.30;99.90
60723;DHT22;46574;52.818;6.516;2024-02-26T04:08:01;4.30;99.90
60723;DHT22;46574;52.818;6.516;2024-02-26T04:10:26;4.30;99.90
60723;DHT22;46574;52.818;6.516;2024-02-26T04:12:52;4.30;99.90
60723;DHT22;46574;52.818;6.516;2024-02-26T04:15:18;4.40;99.90
60723;DHT22;46574;52.818;6.516;2024-02-26T04:17:43;4.40;99.90
60723;DHT22;46574;52.818;6.516;2024-02-26T04:20:14;4.40;99.90
60723;DHT22;46574;52.818;6.516;2024-02-26T04:22:40;4.40;99.90
60723;DHT22;46574;52.818;6.516;2024-02-26T04:25:05;4.50;99.90
60723;DHT22;46574;52.818;6.516;2024-02-26T04:27:31;4.50;99.90
60723;DHT22;46574;52.818;6.516;2024-02-26T04:29:57;4.50;99.90
60723;DHT22;46574;52.818;6.516;2024-02-26T04:32:22;4.50;99.90
60723;DHT22;46574;52.818;6.516;2024-02-26T04:34:48;4.50;99.90
60723;DHT22;46574;52.818;6.516;2024-02-26T04:37:13;4.50;99.90
60723;DHT22;46574;52.818;6.516;2024-02-26T04:39:39;4.50;99.90
60723;DHT22;46574;52.818;6.516;2024-02-26T04:42:05;4.60;99.90
60723;DHT22;46574;52.818;6.516;2024-02-26T04:44:30;4.60;99.90
60723;DHT22;46574;52.818;6.516;2024-02-26T04:46:56;4.60;99.90
60723;DHT22;46574;52.818;6.516;2024-02-26T04:49:22;4.60;99.90
60723;DHT22;46574;52.818;6.516;2024-02-26T04:51:48;4.60;99.90
60723;DHT22;46574;52.818;6.516;2024-02-26T04:54:13;4.70;99.90
60723;DHT22;46574;52.818;6.516;2024-02-26T04:56:39;4.60;99.90
60723;DHT22;46574;52.818;6.516;2024-02-26T04:59:05;4.70;99.90
60723;DHT22;46574;52.818;6.516;2024-02-26T05:01:30;4.70;99.90
60723;DHT22;46574;52.818;6.516;2024-02-26T05:03:56;4.70;99.90
60723;DHT22;46574;52.818;6.516;2024-02-26T05:06:22;4.70;99.90
60723;DHT22;46574;52.818;6.516;2024-02-26T05:08:47;4.70;99.90
60723;DHT22;46574;52.818;6.516;2024-02-26T05:11:13;4.60;99.90
60723;DHT22;46574;52.818;6.516;2024-02-26T05:13:38;4.60;99.90
60723;DHT22;46574;52.818;6.516;2024-02-26T05:16:04;4.60;99.90
60723;DHT22;46574;52.818;6.516;2024-02-26T05:18:30;4.60;99.90
60723;DHT22;46574;52.818;6.516;2024-02-26T05:20:56;4.60;99.90
60723;DHT22;46574;52.818;6.516;2024-02-26T05:23:21;4.60;99.90
60723;DHT22;46574;52.818;6.516;2024-02-26T05:25:48;4.60;99.90
60723;DHT22;46574;52.818;6.516;2024-02-26T05:28:14;4.60;99.90
60723;DHT22;46574;52.818;6.516;2024-02-26T05:30:42;4.60;99.90
60723;DHT22;46574;52.818;6.516;2024-02-26T05:33:07;4.60;99.90
60723;DHT22;46574;52.818;6.516;2024-02-26T05:35:33;4.60;99.90
60723;DHT22;46574;52.818;6.516;2024-02-26T05:37:59;4.60;99.90
60723;DHT22;46574;52.818;6.516;2024-02-26T05:40:24;4.60;99.90
60723;DHT22;46574;52.818;6.516;2024-02-26T05:42:50;4.50;99.90
60723;DHT22;46574;52.818;6.516;2024-02-26T05:45:16;4.50;99.90
60723;DHT22;46574;52.818;6.516;2024-02-26T05:47:42;4.50;99.90
60723;DHT22;46574;52.818;6.516;2024-02-26T05:50:10;4.50;99.90
60723;DHT22;46574;52.818;6.516;2024-02-26T05:52:37;4.50;99.90
60723;DHT22;46574;52.818;6.516;2024-02-26T05:55:04;4.50;99.90
60723;DHT22;46574;52.818;6.516;2024-02-26T05:57:31;4.50;99.90
60723;DHT22;46574;52.818;6.516;2024-02-26T05:59:57;4.50;99.90
60723;DHT22;46574;52.818;6.516;2024-02-26T06:02:26;4.50;99.90
60723;DHT22;46574;52.818;6.516;2024-02-26T06:04:51;4.50;99.90
60723;DHT22;46574;52.818;6.516;2024-02-26T06:07:17;4.50;99.90
60723;DHT22;46574;52.818;6.516;2024-02-26T06:09:43;4.50;99.90
60723;DHT22;46574;52.818;6.516;2024-02-26T06:12:09;4.50;99.90
60723;DHT22;46574;52.818;6.516;2024-02-26T06:14:34;4.50;99.90
60723;DHT22;46574;52.818;6.516;2024-02-26T06:17:00;4.50;99.90
60723;DHT22;46574;52.818;6.516;2024-02-26T06:19:25;4.50;99.90
60723;DHT22;46574;52.818;6.516;2024-02-26T06:21:51;4.50;99.90
60723;DHT22;46574;52.818;6.516;2024-02-26T06:24:16;4.50;99.90
60723;DHT22;46574;52.818;6.516;2024-02-26T06:26:42;4.50;99.90
60723;DHT22;46574;52.818;6.516;2024-02-26T06:29:08;4.50;99.90
60723;DHT22;46574;52.818;6.516;2024-02-26T06:31:33;4.50;99.90
60723;DHT22;46574;52.818;6.516;2024-02-26T06:33:59;4.50;99.90
60723;DHT22;46574;52.818;6.516;2024-02-26T06:36:25;4.50;99.90
60723;DHT22;46574;52.818;6.516;2024-02-26T06:38:51;4.50;99.90
60723;DHT22;46574;52.818;6.516;2024-02-26T06:41:19;4.50;99.90
60723;DHT22;46574;52.818;6.516;2024-02-26T06:43:45;4.50;99.90
60723;DHT22;46574;52.818;6.516;2024-02-26T06:46:11;4.50;99.90
60723;DHT22;46574;52.818;6.516;2024-02-26T06:48:36;4.50;99.90
60723;DHT22;46574;52.818;6.516;2024-02-26T06:51:02;4.50;99.90
60723;DHT22;46574;52.818;6.516;2024-02-26T06:53:28;4.50;99.90
60723;DHT22;46574;52.818;6.516;2024-02-26T06:55:54;4.50;99.90
60723;DHT22;46574;52.818;6.516;2024-02-26T06:58:19;4.50;99.90
60723;DHT22;46574;52.818;6.516;2024-02-26T07:00:45;4.50;99.90
60723;DHT22;46574;52.818;6.516;2024-02-26T07:03:11;4.50;99.90
60723;DHT22;46574;52.818;6.516;2024-02-26T07:05:39;4.50;99.90
60723;DHT22;46574;52.818;6.516;2024-02-26T07:08:05;4.50;99.90
60723;DHT22;46574;52.818;6.516;2024-02-26T07:10:31;4.50;99.90
60723;DHT22;46574;52.818;6.516;2024-02-26T07:12:56;4.50;99.90
60723;DHT22;46574;52.818;6.516;2024-02-26T07:15:22;4.50;99.90
60723;DHT22;46574;52.818;6.516;2024-02-26T07:17:47;4.50;99.90
60723;DHT22;46574;52.818;6.516;2024-02-26T07:20:15;4.50;99.90
60723;DHT22;46574;52.818;6.516;2024-02-26T07:22:40;4.50;99.90
60723;DHT22;46574;52.818;6.516;2024-02-26T07:25:08;4.50;99.90
60723;DHT22;46574;52.818;6.516;2024-02-26T07:27:34;4.50;99.90
60723;DHT22;46574;52.818;6.516;2024-02-26T07:29:59;4.60;99.90
60723;DHT22;46574;52.818;6.516;2024-02-26T07:32:25;4.50;99.90
60723;DHT22;46574;52.818;6.516;2024-02-26T07:34:51;4.60;99.90
60723;DHT22;46574;52.818;6.516;2024-02-26T07:37:16;4.60;99.90
60723;DHT22;46574;52.818;6.516;2024-02-26T07:39:42;4.60;99.90
60723;DHT22;46574;52.818;6.516;2024-02-26T07:42:08;4.60;99.90
60723;DHT22;46574;52.818;6.516;2024-02-26T07:44:33;4.70;99.90
60723;DHT22;46574;52.818;6.516;2024-02-26T07:46:59;4.60;99.90
60723;DHT22;46574;52.818;6.516;2024-02-26T07:49:25;4.70;99.90
60723;DHT22;46574;52.818;6.516;2024-02-26T07:51:51;4.70;99.90
60723;DHT22;46574;52.818;6.516;2024-02-26T07:54:16;4.70;99.90
60723;DHT22;46574;52.818;6.516;2024-02-26T07:56:42;4.70;99.90
60723;DHT22;46574;52.818;6.516;2024-02-26T07:59:08;4.70;99.90
60723;DHT22;46574;52.818;6.516;2024-02-26T08:01:35;4.80;99.90
60723;DHT22;46574;52.818;6.516;2024-02-26T08:04:00;4.80;99.90
60723;DHT22;46574;52.818;6.516;2024-02-26T08:06:26;4.80;99.90
60723;DHT22;46574;52.818;6.516;2024-02-26T08:08:52;4.80;99.90
60723;DHT22;46574;52.818;6.516;2024-02-26T08:11:18;4.80;99.90
60723;DHT22;46574;52.818;6.516;2024-02-26T08:13:44;4.80;99.90
60723;DHT22;46574;52.818;6.516;2024-02-26T08:16:10;4.90;99.90
60723;DHT22;46574;52.818;6.516;2024-02-26T08:18:35;4.90;99.90
60723;DHT22;46574;52.818;6.516;2024-02-26T08:21:01;4.90;99.90
60723;DHT22;46574;52.818;6.516;2024-02-26T08:23:28;4.90;99.90
60723;DHT22;46574;52.818;6.516;2024-02-26T08:25:54;5.00;99.90
60723;DHT22;46574;52.818;6.516;2024-02-26T08:28:20;5.00;99.90
60723;DHT22;46574;52.818;6.516;2024-02-26T08:30:45;5.00;99.90
60723;DHT22;46574;52.818;6.516;2024-02-26T08:33:11;5.00;99.90
60723;DHT22;46574;52.818;6.516;2024-02-26T08:35:37;5.10;99.90
60723;DHT22;46574;52.818;6.516;2024-02-26T08:38:02;5.10;99.90
60723;DHT22;46574;52.818;6.516;2024-02-26T08:40:29;5.10;99.90
60723;DHT22;46574;52.818;6.516;2024-02-26T08:42:54;5.10;99.90
60723;DHT22;46574;52.818;6.516;2024-02-26T08:45:21;5.10;99.90
60723;DHT22;46574;52.818;6.516;2024-02-26T08:47:47;5.10;99.90
60723;DHT22;46574;52.818;6.516;2024-02-26T08:50:13;5.10;99.90
60723;DHT22;46574;52.818;6.516;2024-02-26T08:52:39;5.10;99.90
60723;DHT22;46574;52.818;6.516;2024-02-26T08:55:06;5.20;99.90
60723;DHT22;46574;52.818;6.516;2024-02-26T08:57:32;5.20;99.90
60723;DHT22;46574;52.818;6.516;2024-02-26T08:59:59;5.20;99.90
60723;DHT22;46574;52.818;6.516;2024-02-26T09:02:26;5.30;99.90
60723;DHT22;46574;52.818;6.516;2024-02-26T09:04:51;5.30;99.90
60723;DHT22;46574;52.818;6.516;2024-02-26T09:07:19;5.40;99.90
60723;DHT22;46574;52.818;6.516;2024-02-26T09:09:45;5.40;99.90
60723;DHT22;46574;52.818;6.516;2024-02-26T09:12:11;5.40;99.90
60723;DHT22;46574;52.818;6.516;2024-02-26T09:14:37;5.40;99.90
60723;DHT22;46574;52.818;6.516;2024-02-26T09:17:03;5.50;99.90
60723;DHT22;46574;52.818;6.516;2024-02-26T09:19:29;5.50;99.90
60723;DHT22;46574;52.818;6.516;2024-02-26T09:21:54;5.50;99.90
60723;DHT22;46574;52.818;6.516;2024-02-26T09:24:26;5.50;99.90
60723;DHT22;46574;52.818;6.516;2024-02-26T09:26:52;5.50;99.90
60723;DHT22;46574;52.818;6.516;2024-02-26T09:29:18;5.50;99.90
60723;DHT22;46574;52.818;6.516;2024-02-26T09:31:43;5.60;99.90
60723;DHT22;46574;52.818;6.516;2024-02-26T09:34:12;5.50;99.90
60723;DHT22;46574;52.818;6.516;2024-02-26T09:36:38;5.40;99.90
60723;DHT22;46574;52.818;6.516;2024-02-26T09:39:04;5.50;99.90
60723;DHT22;46574;52.818;6.516;2024-02-26T09:41:30;5.50;99.90
60723;DHT22;46574;52.818;6.516;2024-02-26T09:43:57;5.50;99.90
60723;DHT22;46574;52.818;6.516;2024-02-26T09:46:25;5.50;99.90
60723;DHT22;46574;52.818;6.516;2024-02-26T09:48:50;5.50;99.90
60723;DHT22;46574;52.818;6.516;2024-02-26T09:51:16;5.60;99.90
60723;DHT22;46574;52.818;6.516;2024-02-26T09:53:47;5.60;99.90
60723;DHT22;46574;52.818;6.516;2024-02-26T09:56:14;5.60;99.90
60723;DHT22;46574;52.818;6.516;2024-02-26T09:58:41;5.60;99.90
60723;DHT22;46574;52.818;6.516;2024-02-26T10:01:11;5.70;99.90
60723;DHT22;46574;52.818;6.516;2024-02-26T10:03:40;5.70;99.90
60723;DHT22;46574;52.818;6.516;2024-02-26T10:06:10;5.70;99.90
60723;DHT22;46574;52.818;6.516;2024-02-26T10:08:36;5.70;99.90
60723;DHT22;46574;52.818;6.516;2024-02-26T10:11:05;5.70;99.90
60723;DHT22;46574;52.818;6.516;2024-02-26T10:13:32;5.80;99.90
60723;DHT22;46574;52.818;6.516;2024-02-26T10:15:57;5.80;99.90
60723;DHT22;46574;52.818;6.516;2024-02-26T10:18:24;5.80;99.90
60723;DHT22;46574;52.818;6.516;2024-02-26T10:21:00;5.80;99.90
60723;DHT22;46574;52.818;6.516;2024-02-26T10:23:29;5.90;99.90
60723;DHT22;46574;52.818;6.516;2024-02-26T10:25:55;5.90;99.90
60723;DHT22;46574;52.818;6.516;2024-02-26T10:28:21;5.90;99.90
60723;DHT22;46574;52.818;6.516;2024-02-26T10:30:47;5.90;99.90
60723;DHT22;46574;52.818;6.516;2024-02-26T10:33:13;6.00;99.90
60723;DHT22;46574;52.818;6.516;2024-02-26T10:35:44;6.00;99.90
60723;DHT22;46574;52.818;6.516;2024-02-26T10:38:10;6.00;99.90
60723;DHT22;46574;52.818;6.516;2024-02-26T10:40:36;6.10;99.90
60723;DHT22;46574;52.818;6.516;2024-02-26T10:43:02;6.00;99.90
60723;DHT22;46574;52.818;6.516;2024-02-26T10:45:28;6.10;99.90
60723;DHT22;46574;52.818;6.516;2024-02-26T10:47:54;6.10;99.90
60723;DHT22;46574;52.818;6.516;2024-02-26T10:50:20;6.30;99.90
60723;DHT22;46574;52.818;6.516;2024-02-26T10:52:45;6.30;99.90
60723;DHT22;46574;52.818;6.516;2024-02-26T10:55:17;6.50;99.90
60723;DHT22;46574;52.818;6.516;2024-02-26T10:57:45;6.50;99.90
60723;DHT22;46574;52.818;6.516;2024-02-26T11:00:14;6.50;99.90
60723;DHT22;46574;52.818;6.516;2024-02-26T11:02:41;6.60;99.90
60723;DHT22;46574;52.818;6.516;2024-02-26T11:05:08;6.70;99.90
60723;DHT22;46574;52.818;6.516;2024-02-26T11:07:37;6.70;99.90
60723;DHT22;46574;52.818;6.516;2024-02-26T11:10:04;6.70;99.90
60723;DHT22;46574;52.818;6.516;2024-02-26T11:12:32;6.70;99.90
60723;DHT22;46574;52.818;6.516;2024-02-26T11:14:59;6.70;99.90
60723;DHT22;46574;52.818;6.516;2024-02-26T11:17:28;6.70;99.90
60723;DHT22;46574;52.818;6.516;2024-02-26T11:19:58;6.70;99.90
60723;DHT22;46574;52.818;6.516;2024-02-26T11:22:27;6.80;99.90
60723;DHT22;46574;52.818;6.516;2024-02-26T11:24:53;6.80;99.90
60723;DHT22;46574;52.818;6.516;2024-02-26T11:27:23;6.70;99.90
60723;DHT22;46574;52.818;6.516;2024-02-26T11:29:52;6.70;99.90
60723;DHT22;46574;52.818;6.516;2024-02-26T11:32:18;6.80;99.90
60723;DHT22;46574;52.818;6.516;2024-02-26T11:34:44;6.70;99.90
60723;DHT22;46574;52.818;6.516;2024-02-26T11:37:14;6.80;99.90
60723;DHT22;46574;52.818;6.516;2024-02-26T11:39:43;6.80;99.90
60723;DHT22;46574;52.818;6.516;2024-02-26T11:42:14;6.80;99.90
60723;DHT22;46574;52.818;6.516;2024-02-26T11:44:39;6.70;99.90
60723;DHT22;46574;52.818;6.516;2024-02-26T11:47:14;6.70;99.90
60723;DHT22;46574;52.818;6.516;2024-02-26T11:49:43;6.80;99.90
60723;DHT22;46574;52.818;6.516;2024-02-26T11:52:09;6.80;99.90
60723;DHT22;46574;52.818;6.516;2024-02-26T11:54:52;6.90;99.90
60723;DHT22;46574;52.818;6.516;2024-02-26T12:02:52;6.90;99.90
60723;DHT22;46574;52.818;6.516;2024-02-26T12:05:27;6.90;99.90
60723;DHT22;46574;52.818;6.516;2024-02-26T12:08:03;6.80;99.90
60723;DHT22;46574;52.818;6.516;2024-02-26T12:10:39;6.80;99.90
60723;DHT22;46574;52.818;6.516;2024-02-26T12:13:12;6.80;99.90
60723;DHT22;46574;52.818;6.516;2024-02-26T12:15:43;6.70;99.90
60723;DHT22;46574;52.818;6.516;2024-02-26T12:18:10;6.70;99.90
60723;DHT22;46574;52.818;6.516;2024-02-26T12:20:40;6.70;99.90
60723;DHT22;46574;52.818;6.516;2024-02-26T12:23:06;6.70;99.90
60723;DHT22;46574;52.818;6.516;2024-02-26T12:25:32;6.80;99.90
60723;DHT22;46574;52.818;6.516;2024-02-26T12:27:59;6.80;99.90
60723;DHT22;46574;52.818;6.516;2024-02-26T12:30:27;6.90;99.90
60723;DHT22;46574;52.818;6.516;2024-02-26T12:32:57;6.90;99.90
60723;DHT22;46574;52.818;6.516;2024-02-26T12:35:24;6.80;99.90
60723;DHT22;46574;52.818;6.516;2024-02-26T12:37:50;6.80;99.90
60723;DHT22;46574;52.818;6.516;2024-02-26T12:40:17;6.80;99.90
60723;DHT22;46574;52.818;6.516;2024-02-26T12:42:43;6.80;99.90
60723;DHT22;46574;52.818;6.516;2024-02-26T12:45:10;6.80;99.90
60723;DHT22;46574;52.818;6.516;2024-02-26T12:47:43;6.90;99.90
60723;DHT22;46574;52.818;6.516;2024-02-26T12:50:10;6.80;99.90
60723;DHT22;46574;52.818;6.516;2024-02-26T12:52:43;6.70;99.90
60723;DHT22;46574;52.818;6.516;2024-02-26T12:55:13;6.70;99.90
60723;DHT22;46574;52.818;6.516;2024-02-26T12:57:40;6.70;99.90
60723;DHT22;46574;52.818;6.516;2024-02-26T13:00:10;6.70;99.90
60723;DHT22;46574;52.818;6.516;2024-02-26T13:02:38;6.80;99.90
60723;DHT22;46574;52.818;6.516;2024-02-26T13:05:06;6.70;99.90
60723;DHT22;46574;52.818;6.516;2024-02-26T13:07:33;6.70;99.90
60723;DHT22;46574;52.818;6.516;2024-02-26T13:10:00;6.70;99.90
60723;DHT22;46574;52.818;6.516;2024-02-26T13:12:26;6.70;99.90
60723;DHT22;46574;52.818;6.516;2024-02-26T13:15:04;6.70;99.90
60723;DHT22;46574;52.818;6.516;2024-02-26T13:17:33;6.70;99.90
60723;DHT22;46574;52.818;6.516;2024-02-26T13:19:59;6.70;99.90
60723;DHT22;46574;52.818;6.516;2024-02-26T13:22:25;6.70;99.90
60723;DHT22;46574;52.818;6.516;2024-02-26T13:24:55;6.70;99.90
60723;DHT22;46574;52.818;6.516;2024-02-26T13:27:24;6.70;99.90
60723;DHT22;46574;52.818;6.516;2024-02-26T13:30:10;6.70;99.90
60723;DHT22;46574;52.818;6.516;2024-02-26T13:32:37;6.70;99.90
60723;DHT22;46574;52.818;6.516;2024-02-26T13:35:08;6.60;99.90
60723;DHT22;46574;52.818;6.516;2024-02-26T13:37:35;6.70;99.90
60723;DHT22;46574;52.818;6.516;2024-02-26T13:40:00;6.70;99.90
60723;DHT22;46574;52.818;6.516;2024-02-26T13:42:29;6.60;99.90
60723;DHT22;46574;52.818;6.516;2024-02-26T13:44:55;6.60;99.90
60723;DHT22;46574;52.818;6.516;2024-02-26T13:47:21;6.50;99.90
60723;DHT22;46574;52.818;6.516;2024-02-26T13:49:46;6.50;99.90
60723;DHT22;46574;52.818;6.516;2024-02-26T13:52:12;6.50;99.90
60723;DHT22;46574;52.818;6.516;2024-02-26T13:54:38;6.60;99.90
60723;DHT22;46574;52.818;6.516;2024-02-26T13:57:05;6.60;99.90
60723;DHT22;46574;52.818;6.516;2024-02-26T13:59:31;6.50;99.90
60723;DHT22;46574;52.818;6.516;2024-02-26T14:01:57;6.50;99.90
60723;DHT22;46574;52.818;6.516;2024-02-26T14:04:22;6.60;99.90
60723;DHT22;46574;52.818;6.516;2024-02-26T14:06:48;6.50;99.90
60723;DHT22;46574;52.818;6.516;2024-02-26T14:09:14;6.40;99.90
60723;DHT22;46574;52.818;6.516;2024-02-26T14:11:45;6.40;99.90
60723;DHT22;46574;52.818;6.516;2024-02-26T14:14:10;6.30;99.90
60723;DHT22;46574;52.818;6.516;2024-02-26T14:16:36;6.20;99.90
60723;DHT22;46574;52.818;6.516;2024-02-26T14:19:02;6.30;99.90
60723;DHT22;46574;52.818;6.516;2024-02-26T14:21:28;6.30;99.90
60723;DHT22;46574;52.818;6.516;2024-02-26T14:23:55;6.30;99.90
60723;DHT22;46574;52.818;6.516;2024-02-26T14:26:22;6.30;99.90
60723;DHT22;46574;52.818;6.516;2024-02-26T14:28:48;6.30;99.90
60723;DHT22;46574;52.818;6.516;2024-02-26T14:31:17;6.30;99.90
60723;DHT22;46574;52.818;6.516;2024-02-26T14:33:43;6.20;99.90
60723;DHT22;46574;52.818;6.516;2024-02-26T14:36:09;6.10;99.90
60723;DHT22;46574;52.818;6.516;2024-02-26T14:38:35;6.10;99.90
60723;DHT22;46574;52.818;6.516;2024-02-26T14:41:02;6.10;99.90
60723;DHT22;46574;52.818;6.516;2024-02-26T14:43:28;6.20;99.90
60723;DHT22;46574;52.818;6.516;2024-02-26T14:45:54;6.20;99.90
60723;DHT22;46574;52.818;6.516;2024-02-26T14:48:19;6.20;99.90
60723;DHT22;46574;52.818;6.516;2024-02-26T14:50:45;6.20;99.90
60723;DHT22;46574;52.818;6.516;2024-02-26T14:53:10;6.20;99.90
60723;DHT22;46574;52.818;6.516;2024-02-26T14:55:36;6.10;99.90
60723;DHT22;46574;52.818;6.516;2024-02-26T14:58:02;6.20;99.90
60723;DHT22;46574;52.818;6.516;2024-02-26T15:00:27;6.20;99.90
60723;DHT22;46574;52.818;6.516;2024-02-26T15:02:53;6.20;99.90
60723;DHT22;46574;52.818;6.516;2024-02-26T15:05:20;6.20;99.90
60723;DHT22;46574;52.818;6.516;2024-02-26T15:07:46;6.10;99.90
60723;DHT22;46574;52.818;6.516;2024-02-26T15:10:12;6.10;99.90
60723;DHT22;46574;52.818;6.516;2024-02-26T15:12:38;6.00;99.90
60723;DHT22;46574;52.818;6.516;2024-02-26T15:15:04;6.00;99.90
60723;DHT22;46574;52.818;6.516;2024-02-26T15:17:29;6.00;99.90
60723;DHT22;46574;52.818;6.516;2024-02-26T15:19:57;6.00;99.90
60723;DHT22;46574;52.818;6.516;2024-02-26T15:22:24;5.90;99.90
60723;DHT22;46574;52.818;6.516;2024-02-26T15:24:50;5.90;99.90
60723;DHT22;46574;52.818;6.516;2024-02-26T15:27:16;6.00;99.90
60723;DHT22;46574;52.818;6.516;2024-02-26T15:29:42;6.00;99.90
60723;DHT22;46574;52.818;6.516;2024-02-26T15:32:08;6.10;99.90
60723;DHT22;46574;52.818;6.516;2024-02-26T15:34:33;6.10;99.90
60723;DHT22;46574;52.818;6.516;2024-02-26T15:36:59;6.00;99.90
60723;DHT22;46574;52.818;6.516;2024-02-26T15:39:25;6.00;99.90
60723;DHT22;46574;52.818;6.516;2024-02-26T15:41:50;6.10;99.90
60723;DHT22;46574;52.818;6.516;2024-02-26T15:44:16;6.00;99.90
60723;DHT22;46574;52.818;6.516;2024-02-26T15:46:42;6.00;99.90